Airport View

Enter AWOS ICAO identifier for current METAR.

ex. KFNL

KTOI 191853Z AUTO 24004KT 10SM FEW080 SCT110 28/23 A2987 RMK AO2 RAB22E38 TSB11E28 SLP111 P0004 T02830228

19 Jun 2019 19:17

Phone: 334-566-3081

Other Area AWOS: KPRN - KMGM - KLOR - KEDN

TAF KTOI 191741Z 1918/2018 25009KT P6SM SHRA SCT024 TEMPO 1919/1923 24015G25KT 2SM TSRA BKN035CB OVC100 FM200000 22005KT P6SM SCT050 FM200700 21006KT P6SM OVC015